ジッダ の空港の天気 - METARとTAF

キング・アブドゥルアズィーズ国際空港(ジッダ) ( OEJN / JED ) - サウジアラビア ジッダ
飛行場実況気象(Metar)
観測時間12/14 09:00 AST (12/14 06:00 UTC)
風向・風速北北東 4m/s
視程10km以上
天気現象
全天の8割程度の雲 雲底高度 1220m
気温25℃
湿度57%
気圧1019hPa
METAROEJN 140600Z 03008KT 9999 BKN040 25/16 Q1019 NOSIG
過去の天気等 Google飛行場航空写真 Wunderground天気予報

過去48時間のMETAR

飛行場予報(TAF)
発表時間: 12/14 08:00 AST (12/14 05:00 UTC)
予報対象時間: 14日9時 AST ~ 15日15時 AST
風向・風速北北西 7m/s
視程10km以上
全天の4割程度の雲 雲底高度 1220m
14日21時 AST ~ 14日23時 AST に徐々に
風向・風速北北東 4m/s
TAF OEJN 140500Z 1406/1512 33014KT 9999 SCT040
BECMG 1418/1420 03008KT